Time;durP1;ratioP1;P1;durP2;ratioP2;P2;SDS_P1;SDS_P2;PMS_P1;PMS_P2;Temp;Humidity;BMP_temperature;BMP_pressure;BME280_temperature;BME280_humidity;BME280_pressure;Samples;Min_cycle;Max_cycle;Signal;HPM_P1;HPM_P2
2021/08/12 00:02:24;;;;;;;5.38;3.42;;;;;;;14.33;81.33;101188.72;4969295;28;20046;-81
2021/08/12 00:04:51;;;;;;;5.40;3.05;;;;;;;14.31;80.68;101183.47;4949082;28;20039;-81
2021/08/12 00:07:16;;;;;;;5.50;3.45;;;;;;;14.26;80.42;101193.25;4968975;28;20050;-81
2021/08/12 00:09:41;;;;;;;4.25;3.03;;;;;;;14.26;81.04;101190.59;4946231;29;20047;-81
2021/08/12 00:12:07;;;;;;;4.93;3.72;;;;;;;14.27;80.41;101192.34;4972156;28;20046;-81
2021/08/12 00:14:33;;;;;;;8.40;4.93;;;;;;;14.23;80.34;101188.84;4966877;28;20524;-81
2021/08/12 00:16:58;;;;;;;5.47;4.00;;;;;;;14.20;80.25;101195.94;4968425;28;20039;-81
2021/08/12 00:19:24;;;;;;;6.80;3.83;;;;;;;14.19;81.12;101194.19;4967316;28;20059;-80
2021/08/12 00:21:49;;;;;;;7.25;3.72;;;;;;;14.15;80.96;101192.50;4951943;28;20035;-81
2021/08/12 00:24:14;;;;;;;10.52;6.20;;;;;;;14.07;81.09;101195.22;4967163;28;20050;-81
2021/08/12 00:26:40;;;;;;;6.95;4.47;;;;;;;14.05;81.45;101197.00;4968078;28;20035;-81
2021/08/12 00:29:06;;;;;;;7.63;3.63;;;;;;;14.03;81.64;101206.75;4966925;28;20090;-81
2021/08/12 00:31:32;;;;;;;5.97;4.00;;;;;;;14.05;81.36;101206.75;4950768;28;20519;-81
2021/08/12 00:33:57;;;;;;;5.93;3.88;;;;;;;14.01;80.45;101204.09;4962954;28;20122;-81
2021/08/12 00:36:23;;;;;;;6.03;4.20;;;;;;;13.99;80.85;101208.56;4965802;28;20035;-81
2021/08/12 00:38:50;;;;;;;9.25;3.67;;;;;;;14.02;80.93;101205.88;4950062;28;20081;-80
2021/08/12 00:41:15;;;;;;;5.57;3.47;;;;;;;13.99;80.55;101207.66;4946801;29;20069;-80
2021/08/12 00:43:40;;;;;;;7.13;3.97;;;;;;;13.89;81.38;101206.88;4965854;28;20035;-81
2021/08/12 00:46:06;;;;;;;6.65;3.90;;;;;;;13.84;81.69;101210.47;4949829;28;20034;-81
2021/08/12 00:48:32;;;;;;;8.00;4.35;;;;;;;13.80;82.11;101202.50;4947352;29;20484;-80
2021/08/12 00:50:59;;;;;;;7.38;4.70;;;;;;;13.88;81.47;101212.19;4943000;28;20106;-80
2021/08/12 00:53:26;;;;;;;5.53;4.20;;;;;;;13.87;81.43;101208.66;4966005;28;20034;-80
2021/08/12 00:55:52;;;;;;;5.15;3.92;;;;;;;13.80;81.60;101206.94;4958897;28;20027;-80
2021/08/12 00:58:18;;;;;;;6.45;4.50;;;;;;;13.73;81.33;101203.47;4960694;28;20039;-81
2021/08/12 01:00:46;;;;;;;6.97;4.15;;;;;;;13.72;81.61;101209.66;4948184;28;20027;-81
2021/08/12 01:03:12;;;;;;;4.68;3.55;;;;;;;13.72;81.08;101211.44;4954667;28;20034;-81
2021/08/12 01:05:42;;;;;;;5.63;4.03;;;;;;;13.71;81.09;101212.34;4955360;28;20042;-81
2021/08/12 01:08:13;;;;;;;5.90;4.00;;;;;;;13.71;81.62;101207.03;4965988;28;20107;-80
2021/08/12 01:10:54;;;;;;;6.30;3.90;;;;;;;13.70;81.76;101205.25;4951049;28;20035;-80
2021/08/12 01:14:02;;;;;;;7.43;4.22;;;;;;;13.59;81.62;101210.66;4951612;28;20035;-81
2021/08/12 01:16:31;;;;;;;4.63;3.22;;;;;;;13.55;81.63;101204.50;4965363;28;20039;-80
2021/08/12 01:19:13;;;;;;;5.13;3.63;;;;;;;13.56;81.75;101208.91;4966909;28;20382;-80
2021/08/12 01:21:49;;;;;;;;;;;;;;;13.51;81.96;101200.09;4948643;28;20039;-80
2021/08/12 01:24:15;;;;;;;5.60;3.60;;;;;;;13.52;81.82;101201.00;4966487;28;19992;-80
2021/08/12 01:26:50;;;;;;;7.20;5.50;;;;;;;13.48;82.30;101208.09;4946794;29;20580;-80
2021/08/12 01:29:32;;;;;;;5.85;4.15;;;;;;;13.49;82.58;101201.91;4950493;28;20464;-80
2021/08/12 01:32:06;;;;;;;5.38;4.40;;;;;;;13.52;81.94;101203.66;4949631;28;20114;-80
2021/08/12 01:34:57;;;;;;;6.55;3.70;;;;;;;13.51;82.02;101205.41;4956010;28;20083;-80
2021/08/12 01:37:34;;;;;;;6.40;3.35;;;;;;;13.52;81.75;101203.66;4950161;28;20035;-80
2021/08/12 01:40:03;;;;;;;5.80;3.25;;;;;;;13.54;81.63;101194.78;4947999;28;20032;-80
2021/08/12 01:42:30;;;;;;;4.88;3.47;;;;;;;13.55;81.83;101201.84;4950834;28;20575;-80
2021/08/12 01:44:58;;;;;;;6.25;3.20;;;;;;;13.51;81.53;101192.16;4945833;28;20102;-80
2021/08/12 01:47:25;;;;;;;5.05;3.75;;;;;;;13.46;82.01;101201.91;4949667;28;20093;-80
2021/08/12 01:49:52;;;;;;;6.13;4.25;;;;;;;13.42;81.74;101197.53;4946087;29;20032;-80
2021/08/12 01:52:19;;;;;;;4.97;3.42;;;;;;;13.39;81.95;101208.16;4949493;28;20047;-80
2021/08/12 01:54:48;;;;;;;5.47;3.90;;;;;;;13.42;81.66;101205.50;4964966;28;20034;-80
2021/08/12 01:59:41;;;;;;;5.95;3.70;;;;;;;13.40;81.15;101203.75;4941387;29;20091;-81
2021/08/12 02:02:09;;;;;;;5.47;3.72;;;;;;;13.34;81.15;101197.59;4958293;29;20043;-82
2021/08/12 02:04:37;;;;;;;7.38;4.80;;;;;;;13.33;81.58;101197.59;4958841;29;20087;-81
2021/08/12 02:07:05;;;;;;;6.88;4.60;;;;;;;13.33;81.61;101192.28;4950226;29;20043;-82
2021/08/12 02:09:31;;;;;;;6.63;5.10;;;;;;;13.26;81.47;101195.84;4915857;29;20032;-81
2021/08/12 02:11:56;;;;;;;6.25;4.22;;;;;;;13.24;81.95;101189.69;4938490;29;20038;-81
2021/08/12 02:14:22;;;;;;;8.02;5.93;;;;;;;13.12;81.61;101204.75;4948694;29;20118;-81
2021/08/12 02:16:47;;;;;;;7.15;5.65;;;;;;;13.08;82.06;101200.38;4938344;29;20031;-81
2021/08/12 02:19:13;;;;;;;7.15;5.28;;;;;;;13.02;81.81;101200.41;4947541;29;20047;-82
2021/08/12 02:21:44;;;;;;;6.35;4.45;;;;;;;12.95;82.24;101206.63;4950744;29;20042;-81
2021/08/12 02:24:14;;;;;;;4.97;4.10;;;;;;;12.92;82.85;101198.69;4948372;29;20219;-80
2021/08/12 02:26:44;;;;;;;5.00;3.58;;;;;;;12.97;82.83;101201.31;4940195;29;20031;-81
2021/08/12 02:29:13;;;;;;;6.45;3.53;;;;;;;12.96;82.63;101196.91;4924253;29;20134;-82
2021/08/12 02:31:43;;;;;;;7.43;4.13;;;;;;;12.97;82.65;101194.25;4923859;29;20127;-82
2021/08/12 02:34:09;;;;;;;4.93;3.47;;;;;;;12.99;82.30;101196.88;4947327;29;20035;-81
2021/08/12 02:36:36;;;;;;;4.95;3.60;;;;;;;13.03;82.81;101201.28;4949746;28;20032;-81
2021/08/12 02:39:03;;;;;;;6.35;3.63;;;;;;;13.04;82.91;101197.75;4951689;29;20032;-82
2021/08/12 02:41:32;;;;;;;6.75;4.80;;;;;;;13.02;82.81;101199.50;4949390;29;20039;-81
2021/08/12 02:43:59;;;;;;;4.90;3.70;;;;;;;12.89;82.07;101201.34;4939451;29;20406;-81
2021/08/12 02:46:27;;;;;;;5.38;4.07;;;;;;;12.83;81.76;101204.03;4949456;29;20036;-81
2021/08/12 02:48:55;;;;;;;5.38;4.07;;;;;;;12.82;82.07;101197.84;4954784;29;20035;-80
2021/08/12 02:51:24;;;;;;;5.78;4.25;;;;;;;12.81;82.52;101200.50;4951355;29;20039;-81
2021/08/12 02:53:51;;;;;;;4.90;3.55;;;;;;;12.83;82.62;101204.03;4941662;28;20110;-80
2021/08/12 02:56:17;;;;;;;6.03;3.30;;;;;;;12.84;82.58;101200.50;4946415;28;20035;-81
2021/08/12 02:58:45;;;;;;;6.18;3.67;;;;;;;12.82;82.99;101200.50;4950834;28;20486;-81
2021/08/12 03:01:11;;;;;;;4.63;3.10;;;;;;;12.79;82.86;101210.25;4943637;29;20039;-81
2021/08/12 03:03:41;;;;;;;5.93;4.30;;;;;;;12.82;82.94;101204.94;4953861;28;20069;-82
2021/08/12 03:06:08;;;;;;;8.80;4.60;;;;;;;12.85;83.01;101207.56;4941932;29;20486;-81
2021/08/12 03:08:35;;;;;;;5.28;4.15;;;;;;;12.86;82.39;101204.91;4950378;29;20051;-81
2021/08/12 03:11:01;;;;;;;5.68;4.32;;;;;;;12.88;82.49;101208.41;4943356;29;20036;-81
2021/08/12 03:13:28;;;;;;;7.25;4.93;;;;;;;12.87;83.17;101214.63;4949976;28;20039;-81
2021/08/12 03:15:54;;;;;;;6.82;4.13;;;;;;;12.82;82.98;101208.47;4954687;28;20042;-81
2021/08/12 03:18:20;;;;;;;6.18;3.92;;;;;;;12.83;82.70;101218.16;4961832;28;20077;-81
2021/08/12 03:20:45;;;;;;;5.25;4.25;;;;;;;12.86;83.01;101214.59;4952214;29;20031;-81
2021/08/12 03:23:12;;;;;;;6.00;4.20;;;;;;;12.81;82.98;101214.66;4954345;29;20031;-81
2021/08/12 03:25:37;;;;;;;5.57;4.70;;;;;;;12.77;83.45;101217.31;4944611;29;20189;-81
2021/08/12 03:28:03;;;;;;;5.28;3.97;;;;;;;12.75;83.20;101219.06;4952120;29;20477;-81
2021/08/12 03:30:29;;;;;;;6.00;3.75;;;;;;;12.79;83.27;101218.19;4940137;29;20502;-81
2021/08/12 03:32:54;;;;;;;6.50;4.75;;;;;;;12.82;82.81;101220.81;4943689;29;20496;-82
2021/08/12 03:35:21;;;;;;;8.88;6.25;;;;;;;12.80;82.60;101214.66;4952665;29;20039;-82
2021/08/12 03:37:47;;;;;;;10.55;7.03;;;;;;;12.79;83.18;101218.19;4948342;29;20118;-81
2021/08/12 03:40:13;;;;;;;6.82;5.00;;;;;;;12.76;83.42;101212.88;4956582;28;20054;-82
2021/08/12 03:42:39;;;;;;;5.45;4.20;;;;;;;12.79;82.76;101219.06;4953583;29;20031;-82
2021/08/12 03:45:05;;;;;;;7.55;5.20;;;;;;;12.76;82.65;101212.88;4956568;29;20051;-83
2021/08/12 03:47:32;;;;;;;6.35;4.15;;;;;;;12.76;82.88;101216.44;4933198;29;20422;-82
2021/08/12 03:49:58;;;;;;;7.43;4.35;;;;;;;12.77;82.50;101219.97;4937022;29;20062;-82
2021/08/12 03:52:23;;;;;;;7.72;4.38;;;;;;;12.76;82.36;101219.09;4947221;29;20490;-82
2021/08/12 03:54:49;;;;;;;7.25;4.50;;;;;;;12.73;82.14;101221.72;4948123;29;20030;-83
2021/08/12 03:57:14;;;;;;;7.95;5.53;;;;;;;12.75;82.12;101222.59;4934114;29;20533;-81
2021/08/12 03:59:41;;;;;;;9.95;5.55;;;;;;;12.76;82.60;101227.03;4955248;28;20023;-82
2021/08/12 04:02:10;;;;;;;7.45;4.15;;;;;;;12.72;82.41;101233.22;4957529;28;20030;-81
2021/08/12 04:04:35;;;;;;;7.90;5.20;;;;;;;12.72;82.51;101227.91;4944617;29;20427;-82
2021/08/12 04:07:03;;;;;;;5.88;4.43;;;;;;;12.71;82.33;101232.34;4947800;29;20046;-82
2021/08/12 04:09:28;;;;;;;9.30;5.82;;;;;;;12.72;82.53;101228.78;4945325;29;20036;-81
2021/08/12 04:11:54;;;;;;;6.60;5.20;;;;;;;12.76;82.79;101226.13;4942026;28;20490;-83
2021/08/12 04:14:19;;;;;;;10.40;6.57;;;;;;;12.77;83.14;101227.91;4962070;28;20110;-83
2021/08/12 04:16:45;;;;;;;9.13;6.00;;;;;;;12.80;82.67;101230.53;4950282;28;20035;-81
2021/08/12 04:19:12;;;;;;;6.93;4.90;;;;;;;12.84;82.89;101237.59;4959102;28;20084;-81
2021/08/12 04:21:38;;;;;;;6.72;5.22;;;;;;;12.91;82.51;101247.25;4956041;28;20063;-82
2021/08/12 04:24:04;;;;;;;7.60;4.43;;;;;;;12.91;82.55;101241.97;4955118;28;20038;-82
2021/08/12 04:26:29;;;;;;;5.97;4.43;;;;;;;12.92;82.45;101241.09;4953606;28;20031;-82
2021/08/12 04:28:55;;;;;;;5.85;4.57;;;;;;;12.95;81.98;101235.78;4935283;29;20529;-81
2021/08/12 04:31:21;;;;;;;10.30;5.63;;;;;;;13.01;82.21;101234.84;4945339;28;20031;-80
2021/08/12 04:33:46;;;;;;;9.30;4.90;;;;;;;13.04;81.64;101235.72;4951681;28;20114;-81
2021/08/12 04:36:13;;;;;;;5.72;4.80;;;;;;;13.08;81.84;101237.47;4936575;29;20481;-80
2021/08/12 04:38:39;;;;;;;7.20;5.00;;;;;;;13.16;82.01;101240.97;4919389;29;20127;-82
2021/08/12 04:41:04;;;;;;;7.38;5.30;;;;;;;13.25;81.77;101237.38;4944777;28;20490;-82
2021/08/12 04:43:33;;;;;;;6.07;4.13;;;;;;;13.30;81.86;101237.38;4954420;28;20035;-81
2021/08/12 04:45:58;;;;;;;8.88;4.85;;;;;;;13.37;81.54;101236.47;4944323;28;20046;-83
2021/08/12 04:48:23;;;;;;;7.57;5.03;;;;;;;13.36;81.80;101242.63;4937357;29;20097;-81
2021/08/12 04:50:49;;;;;;;7.20;5.13;;;;;;;13.46;81.62;101232.84;4932886;28;20038;-81
2021/08/12 04:53:15;;;;;;;7.07;5.38;;;;;;;13.57;81.58;101242.50;4950048;28;20027;-82
2021/08/12 04:55:40;;;;;;;8.52;6.82;;;;;;;13.70;81.69;101231.78;4961422;28;20401;-82
2021/08/12 04:58:06;;;;;;;8.05;6.53;;;;;;;13.81;81.36;101233.47;4943347;29;20118;-82
2021/08/12 05:00:32;;;;;;;7.93;6.28;;;;;;;13.91;81.47;101228.97;4952318;28;20114;-82
2021/08/12 05:02:57;;;;;;;8.23;6.55;;;;;;;14.02;81.42;101224.44;4939378;28;20031;-82
2021/08/12 05:05:23;;;;;;;7.72;5.78;;;;;;;14.14;81.07;101230.53;4954860;28;20489;-82
2021/08/12 05:07:48;;;;;;;7.55;6.40;;;;;;;14.22;81.01;101231.31;4954497;28;20452;-82
2021/08/12 05:10:14;;;;;;;10.43;7.95;;;;;;;14.34;80.91;101231.22;4930353;29;20056;-83
2021/08/12 05:12:39;;;;;;;9.55;6.97;;;;;;;14.45;80.71;101231.09;4950532;28;20027;-82
2021/08/12 05:15:05;;;;;;;13.15;8.35;;;;;;;14.58;80.55;101231.88;4936612;29;20055;-82
2021/08/12 05:17:31;;;;;;;13.93;9.68;;;;;;;14.69;80.32;101232.63;4936290;29;20117;-83
2021/08/12 05:19:56;;;;;;;12.68;9.73;;;;;;;14.80;80.53;101238.69;4941693;29;20488;-82
2021/08/12 05:22:23;;;;;;;14.88;10.18;;;;;;;14.87;80.29;101234.16;4948179;29;20035;-82
2021/08/12 05:24:50;;;;;;;13.85;12.05;;;;;;;14.95;80.39;101242.06;4930401;29;20035;-81
2021/08/12 05:29:55;;;;;;;12.23;11.00;;;;;;;15.22;80.16;101243.44;4969682;28;20105;-82
2021/08/12 05:32:22;;;;;;;12.80;10.90;;;;;;;15.32;80.03;101240.63;4969216;28;20493;-82
2021/08/12 05:34:47;;;;;;;12.02;10.15;;;;;;;15.40;79.92;101239.66;4968710;28;20045;-83
2021/08/12 05:37:13;;;;;;;13.05;10.93;;;;;;;15.49;79.54;101231.56;4964427;28;20520;-82
2021/08/12 05:39:40;;;;;;;12.07;10.60;;;;;;;15.62;78.82;101234.91;4952766;28;20036;-83
2021/08/12 05:42:05;;;;;;;12.95;11.23;;;;;;;15.74;78.81;101232.06;4970455;28;20050;-81
2021/08/12 05:44:31;;;;;;;12.32;10.73;;;;;;;15.75;78.68;101240.03;4957239;28;20269;-82
2021/08/12 05:46:56;;;;;;;13.18;11.40;;;;;;;15.79;79.08;101246.16;4979056;28;20059;-82
2021/08/12 05:49:24;;;;;;;12.65;11.35;;;;;;;15.89;79.10;101241.59;4959626;28;20106;-82
2021/08/12 05:51:51;;;;;;;17.23;11.85;;;;;;;16.02;78.69;101244.91;4959078;28;20035;-82
2021/08/12 05:54:16;;;;;;;11.82;10.63;;;;;;;16.11;78.12;101247.41;4967699;28;20037;-82
2021/08/12 05:56:42;;;;;;;11.18;9.38;;;;;;;16.19;77.78;101254.38;4969807;28;20062;-82
2021/08/12 05:59:07;;;;;;;10.57;8.55;;;;;;;16.34;77.50;101249.66;4957741;28;20041;-81
2021/08/12 06:01:33;;;;;;;9.00;8.10;;;;;;;16.41;77.25;101251.31;4971572;28;20046;-82
2021/08/12 06:04:00;;;;;;;12.10;10.38;;;;;;;16.44;77.68;101248.59;4967198;28;20039;-81
2021/08/12 06:06:25;;;;;;;11.73;9.63;;;;;;;16.47;77.57;101245.84;4953445;28;20117;-81
2021/08/12 06:08:52;;;;;;;9.57;8.27;;;;;;;16.46;77.87;101244.09;4966316;28;20031;-82
2021/08/12 06:11:17;;;;;;;9.40;8.13;;;;;;;16.55;77.68;101243.91;4970175;28;20038;-81
2021/08/12 06:13:43;;;;;;;10.63;8.15;;;;;;;16.66;76.60;101246.38;4968729;28;20482;-81
2021/08/12 06:16:11;;;;;;;10.18;9.18;;;;;;;16.77;75.95;101243.50;4972091;28;20505;-82
2021/08/12 06:18:36;;;;;;;9.70;7.70;;;;;;;16.83;76.08;101248.75;4969050;28;20572;-81
2021/08/12 06:21:01;;;;;;;7.97;6.43;;;;;;;16.97;75.51;101251.97;4972305;28;20042;-81
2021/08/12 06:23:27;;;;;;;8.88;7.35;;;;;;;17.08;74.86;101247.31;4976755;28;20070;-81
2021/08/12 06:25:52;;;;;;;9.43;7.07;;;;;;;17.18;74.49;101247.09;4969264;28;20089;-82
2021/08/12 06:28:18;;;;;;;9.20;7.70;;;;;;;17.12;74.50;101245.44;4968430;28;20039;-81
2021/08/12 06:30:43;;;;;;;13.15;8.40;;;;;;;17.01;74.87;101245.69;4983793;28;20038;-81
2021/08/12 06:33:10;;;;;;;9.20;8.20;;;;;;;17.14;74.77;101250.75;4967644;28;20033;-81
2021/08/12 06:35:35;;;;;;;10.68;7.95;;;;;;;17.20;74.33;101247.94;4976419;28;20026;-81
2021/08/12 06:38:03;;;;;;;10.95;9.38;;;;;;;17.38;74.11;101250.22;4977026;28;20035;-81
2021/08/12 06:40:29;;;;;;;8.90;7.50;;;;;;;17.57;73.80;101249.78;4972898;28;20069;-81
2021/08/12 06:42:55;;;;;;;9.30;7.07;;;;;;;17.77;73.30;101255.53;4976717;28;20174;-82
2021/08/12 06:45:23;;;;;;;8.07;6.43;;;;;;;17.83;72.91;101250.06;4950998;29;20035;-83
2021/08/12 06:47:51;;;;;;;11.05;7.13;;;;;;;17.99;72.57;101245.19;4970509;28;20456;-82
2021/08/12 06:50:19;;;;;;;8.25;5.97;;;;;;;18.14;72.29;101254.63;4959666;28;20381;-82
2021/08/12 06:52:46;;;;;;;8.43;6.57;;;;;;;18.25;71.71;101259.69;4974262;28;20043;-82
2021/08/12 06:55:12;;;;;;;9.52;6.97;;;;;;;18.31;71.87;101265.75;4968909;28;20034;-83
2021/08/12 06:57:37;;;;;;;10.45;7.10;;;;;;;18.40;71.32;101264.63;4967792;28;20045;-83
2021/08/12 07:00:05;;;;;;;8.57;7.15;;;;;;;18.46;70.67;101272.47;4967894;28;20031;-82
2021/08/12 07:02:31;;;;;;;9.13;7.03;;;;;;;18.62;70.68;101270.25;4951764;28;20035;-82
2021/08/12 07:04:57;;;;;;;9.95;6.03;;;;;;;18.78;70.30;101274.28;4962550;28;20034;-81
2021/08/12 07:07:22;;;;;;;9.48;7.43;;;;;;;18.94;70.34;101268.47;4965289;28;20038;-82
2021/08/12 07:09:48;;;;;;;9.60;8.10;;;;;;;19.05;70.20;101266.41;4970701;28;20059;-84
2021/08/12 07:12:13;;;;;;;7.38;5.55;;;;;;;19.13;69.50;101267.03;4968664;28;20030;-81
2021/08/12 07:14:40;;;;;;;8.88;5.43;;;;;;;19.17;68.84;101265.13;4953183;28;20034;-82
2021/08/12 07:17:05;;;;;;;7.78;5.40;;;;;;;19.21;68.51;101254.31;4964564;28;20051;-82
2021/08/12 07:19:32;;;;;;;7.07;5.40;;;;;;;19.31;68.55;101262.03;4964732;28;20042;-82
2021/08/12 07:21:57;;;;;;;7.82;6.03;;;;;;;19.46;68.01;101261.56;4967438;28;20031;-82
2021/08/12 07:24:25;;;;;;;7.95;5.65;;;;;;;19.46;68.16;101267.78;4964861;28;20042;-82
2021/08/12 07:26:51;;;;;;;8.90;7.47;;;;;;;19.57;68.59;101259.44;4966895;28;20568;-82
2021/08/12 07:29:17;;;;;;;9.38;7.30;;;;;;;19.62;68.01;101257.50;4949245;28;20037;-82
2021/08/12 07:31:43;;;;;;;8.48;6.03;;;;;;;19.74;67.82;101268.75;4963375;28;20127;-82
2021/08/12 07:34:09;;;;;;;8.45;5.55;;;;;;;19.86;67.54;101258.53;4959319;28;20038;-82
2021/08/12 07:36:37;;;;;;;6.85;5.22;;;;;;;20.01;66.89;101265.16;4968781;28;20086;-83
2021/08/12 07:39:05;;;;;;;7.22;5.35;;;;;;;20.14;66.74;101265.59;4969144;28;20035;-82
2021/08/12 07:41:32;;;;;;;6.88;5.10;;;;;;;20.29;66.11;101269.56;4971353;28;20074;-81
2021/08/12 07:43:58;;;;;;;6.45;4.97;;;;;;;20.39;65.32;101265.66;4957449;28;20516;-82
2021/08/12 07:46:24;;;;;;;6.43;5.07;;;;;;;20.50;64.80;101262.59;4971293;28;20026;-82
2021/08/12 07:48:49;;;;;;;6.97;5.50;;;;;;;20.58;64.44;101256.03;4973342;28;20035;-82
2021/08/12 07:51:15;;;;;;;7.78;5.10;;;;;;;20.71;64.32;101258.28;4973776;28;20504;-82
2021/08/12 07:53:41;;;;;;;7.50;5.45;;;;;;;20.81;63.41;101259.69;4955717;28;20023;-82
2021/08/12 07:59:23;;;;;;;6.85;5.47;;;;;;;21.09;62.85;101262.22;4415525;26;20051;-84
2021/08/12 08:01:49;;;;;;;8.43;5.15;;;;;;;21.16;62.14;101268.22;4965243;28;20138;-82
2021/08/12 08:07:39;;;;;;;9.73;7.20;;;;;;;21.27;59.75;101268.66;4951843;28;20067;-82
2021/08/12 08:13:34;;;;;;;6.60;5.10;;;;;;;21.31;59.76;101251.50;4964619;28;20047;-83
2021/08/12 08:16:56;;;;;;;7.07;6.03;;;;;;;21.57;58.69;101252.31;4963457;28;20094;-83
2021/08/12 08:26:53;;;;;;;7.43;3.80;;;;;;;22.09;56.99;101245.66;4953285;28;20126;-83
2021/08/12 08:29:39;;;;;;;6.35;4.10;;;;;;;22.15;57.79;101243.63;4967620;28;20043;-83
2021/08/12 08:36:50;;;;;;;7.00;5.05;;;;;;;22.62;56.08;101248.78;4940093;28;20050;-84
2021/08/12 08:39:39;;;;;;;6.63;4.45;;;;;;;22.66;56.09;101256.66;4949579;28;20039;-83
2021/08/12 08:45:48;;;;;;;9.25;7.05;;;;;;;22.95;56.69;101265.19;4946667;28;20126;-83
2021/08/12 08:51:48;;;;;;;7.45;5.38;;;;;;;23.10;55.48;101256.41;4916699;29;20093;-83
2021/08/12 08:55:22;;;;;;;;;;;;;;;;;;;;;
2021/08/12 08:59:12;;;;;;;6.03;5.07;;;;;;;23.47;53.68;101243.88;4869055;29;20424;-83
2021/08/12 09:01:18;;;;;;;7.30;4.80;;;;;;;23.52;52.39;101238.28;4873314;29;20054;-83
2021/08/12 09:03:50;;;;;;;8.65;7.75;;;;;;;23.65;53.44;101241.25;4908937;29;20052;-83
2021/08/12 09:06:33;;;;;;;9.02;7.70;;;;;;;23.84;52.10;101237.59;4927123;29;20545;-83
2021/08/12 09:09:21;;;;;;;9.00;6.93;;;;;;;24.06;52.49;101242.75;4926749;29;20074;-83
2021/08/12 09:12:07;;;;;;;9.50;7.27;;;;;;;24.20;49.56;101243.88;4908760;29;20052;-83
2021/08/12 09:15:35;;;;;;;6.70;4.35;;;;;;;24.27;47.62;101248.00;4924431;29;20296;-83
2021/08/12 09:18:04;;;;;;;7.07;4.10;;;;;;;24.41;48.29;101241.88;4891431;29;20052;-82
2021/08/12 09:21:27;;;;;;;6.57;4.47;;;;;;;24.67;47.78;101237.81;4897485;29;20568;-83
2021/08/12 09:24:23;;;;;;;13.98;7.13;;;;;;;24.99;48.22;101227.09;4847313;29;20674;-83
2021/08/12 09:28:12;;;;;;;6.03;4.70;;;;;;;25.19;46.17;101229.59;4880068;29;20096;-83
2021/08/12 09:31:07;;;;;;;7.80;5.72;;;;;;;25.32;46.79;101216.25;4897150;29;20040;-83
2021/08/12 09:33:55;;;;;;;6.65;4.68;;;;;;;25.27;46.09;101219.22;4882048;29;20052;-83
2021/08/12 09:37:01;;;;;;;;;;;;;;;25.25;45.47;101218.44;4908886;29;20070;-82
2021/08/12 09:39:29;;;;;;;7.72;5.13;;;;;;;25.25;45.67;101217.56;4895334;29;19919;-83
2021/08/12 09:42:04;;;;;;;5.72;3.80;;;;;;;25.35;44.66;101216.09;4948864;28;20461;-83
2021/08/12 09:44:50;;;;;;;7.55;4.88;;;;;;;25.28;45.19;101211.97;4976344;28;20089;-83
2021/08/12 09:47:35;;;;;;;6.93;4.07;;;;;;;25.26;43.98;101213.91;4968604;28;20067;-83
2021/08/12 09:50:01;;;;;;;7.18;5.88;;;;;;;25.22;44.41;101207.81;4974904;28;20061;-83
2021/08/12 09:52:32;;;;;;;8.98;4.90;;;;;;;25.44;44.95;101206.56;4960920;28;20031;-83
2021/08/12 09:55:08;;;;;;;11.18;6.82;;;;;;;25.66;42.90;101211.63;4981180;28;20118;-83
2021/08/12 09:57:41;;;;;;;6.57;4.63;;;;;;;25.79;43.75;101205.38;4949458;28;20460;-83
2021/08/12 10:00:08;;;;;;;7.72;4.10;;;;;;;25.67;42.86;101203.41;4982789;28;20037;-84
2021/08/12 10:02:37;;;;;;;5.53;3.00;;;;;;;25.91;41.81;101206.53;4977426;28;20031;-83
2021/08/12 10:05:05;;;;;;;5.22;3.53;;;;;;;25.87;42.11;101204.09;4970658;28;20038;-82
2021/08/12 10:07:38;;;;;;;6.88;4.13;;;;;;;26.00;42.49;101200.56;4977885;28;20113;-84
2021/08/12 10:10:17;;;;;;;9.73;4.95;;;;;;;26.25;41.86;101204.47;4955805;28;20035;-84
2021/08/12 10:12:46;;;;;;;7.00;5.57;;;;;;;26.41;41.42;101199.00;4968197;28;20119;-82
2021/08/12 10:15:14;;;;;;;5.70;4.03;;;;;;;26.49;41.60;101206.63;4953244;28;20039;-84
2021/08/12 10:17:41;;;;;;;10.93;6.70;;;;;;;26.84;41.65;101205.31;4954352;28;20046;-82
2021/08/12 10:20:14;;;;;;;5.85;3.70;;;;;;;27.04;39.88;101200.47;4954584;28;20041;-83
2021/08/12 10:22:40;;;;;;;6.03;4.18;;;;;;;26.94;40.30;101197.47;4955476;28;20058;-83
2021/08/12 10:25:10;;;;;;;5.88;3.88;;;;;;;26.83;39.83;101197.31;4955317;28;20061;-82
2021/08/12 10:28:00;;;;;;;16.03;12.30;;;;;;;26.94;40.56;101196.63;4959680;28;20032;-83
2021/08/12 10:30:29;;;;;;;9.77;8.48;;;;;;;27.10;39.62;101203.63;4976029;28;20289;-83
2021/08/12 10:32:56;;;;;;;11.35;9.23;;;;;;;27.28;39.97;101200.75;4968578;28;20031;-82
2021/08/12 10:54:24;;;;;;;8.07;4.20;;;;;;;27.67;37.17;101186.38;4914685;29;20046;-83
2021/08/12 11:01:07;;;;;;;12.20;7.60;;;;;;;27.84;37.32;101182.53;4909154;29;20256;-82
2021/08/12 11:04:43;;;;;;;;;;;;;;;;;;;;;
2021/08/12 11:13:02;;;;;;;6.13;5.47;;;;;;;28.27;32.94;101176.84;4857746;29;20128;-82
2021/08/12 11:17:03;;;;;;;;;;;;;;;;;;;;;
2021/08/12 11:20:17;;;;;;;6.15;3.95;;;;;;;28.17;35.40;101178.47;4892139;29;20073;-82
2021/08/12 12:12:50;;;;;;;6.50;4.30;;;;;;;30.66;31.10;101148.97;4921874;29;20070;-82
2021/08/12 12:20:15;;;;;;;;;;;;;;;;;;;;;
2021/08/12 12:23:39;;;;;;;8.50;6.95;;;;;;;33.36;26.50;101145.59;4894543;29;20045;-82
2021/08/12 12:27:35;;;;;;;;;;;;;;;;;;;;;
2021/08/12 12:39:04;;;;;;;;;;;;;;;;;;;;;
2021/08/12 12:45:48;;;;;;;6.35;3.88;;;;;;;34.21;23.43;101112.97;4959324;28;20125;-82
2021/08/12 12:49:10;;;;;;;3.55;3.03;;;;;;;34.47;22.50;101115.91;4942599;28;20406;-82
2021/08/12 12:51:52;;;;;;;5.63;4.90;;;;;;;35.19;23.25;101111.53;4955978;28;20074;-82
2021/08/12 12:54:48;;;;;;;5.97;3.42;;;;;;;35.59;22.09;101104.72;4966451;28;20345;-82
2021/08/12 12:58:11;;;;;;;8.48;5.45;;;;;;;35.31;22.06;101109.41;4965375;28;20041;-82
2021/08/12 13:01:44;;;;;;;;;;;;;;;;;;;;;
2021/08/12 13:04:57;;;;;;;5.70;3.05;;;;;;;35.88;20.87;101109.91;4969866;28;20158;-82
2021/08/12 13:08:00;;;;;;;4.28;3.10;;;;;;;35.55;21.55;101100.50;4954584;28;20042;-82
2021/08/12 13:11:16;;;;;;;5.85;4.95;;;;;;;35.99;21.09;101106.03;4964463;28;20094;-82
2021/08/12 13:14:09;;;;;;;5.40;4.53;;;;;;;35.84;20.81;101097.50;4949087;28;20035;-82
2021/08/12 13:17:00;;;;;;;4.90;3.80;;;;;;;36.11;21.49;101090.19;4947057;28;20054;-82
2021/08/12 13:19:36;;;;;;;4.93;3.30;;;;;;;36.02;21.63;101091.97;4962541;28;20041;-82
2021/08/12 13:22:32;;;;;;;4.70;3.38;;;;;;;35.95;21.78;101091.78;4969859;28;20039;-82
2021/08/12 13:25:37;;;;;;;3.67;3.20;;;;;;;36.36;19.46;101093.91;4945951;28;20407;-82
2021/08/12 13:28:39;;;;;;;4.30;3.10;;;;;;;36.45;19.50;101076.47;4967487;28;20034;-82
2021/08/12 13:34:37;;;;;;;4.15;3.03;;;;;;;36.76;19.77;101079.53;4961332;28;20122;-83
2021/08/12 13:37:43;;;;;;;4.78;4.13;;;;;;;36.50;18.88;101076.81;4955415;23;20634;-82
2021/08/12 13:40:26;;;;;;;3.90;2.90;;;;;;;36.92;20.10;101075.06;4954057;29;20039;-82
2021/08/12 13:43:11;;;;;;;5.23;3.87;;;;;;;36.92;19.40;101077.81;4959954;28;20054;-82
2021/08/12 13:45:45;;;;;;;4.45;3.00;;;;;;;37.11;18.94;101079.47;4954656;28;20151;-83
2021/08/12 13:48:18;;;;;;;3.60;2.97;;;;;;;36.99;19.35;101079.72;4951360;28;20047;-82
2021/08/12 13:50:56;;;;;;;7.10;5.18;;;;;;;37.05;18.21;101073.59;4954201;28;20067;-82
2021/08/12 13:53:25;;;;;;;5.50;3.95;;;;;;;37.00;19.26;101072.34;4957730;28;20035;-82
2021/08/12 13:55:55;;;;;;;5.35;3.60;;;;;;;36.90;18.89;101071.66;4954687;28;20039;-82
2021/08/12 13:58:34;;;;;;;4.50;3.60;;;;;;;37.11;18.84;101063.81;4948720;29;20134;-83
2021/08/12 14:01:05;;;;;;;13.05;4.88;;;;;;;36.82;19.10;101069.72;4953426;28;20051;-83
2021/08/12 14:03:33;;;;;;;4.47;2.58;;;;;;;36.60;18.61;101072.09;4955813;28;20606;-83
2021/08/12 14:06:01;;;;;;;3.75;2.85;;;;;;;36.06;18.93;101065.91;4961723;28;20072;-82
2021/08/12 14:08:26;;;;;;;4.47;2.90;;;;;;;36.29;20.33;101066.25;4956021;28;20134;-82
2021/08/12 14:10:52;;;;;;;3.38;2.70;;;;;;;36.41;20.21;101064.06;4960642;28;20054;-79
2021/08/12 14:13:18;;;;;;;3.60;3.00;;;;;;;36.39;19.01;101060.59;4961652;28;20091;-79
2021/08/12 14:15:43;;;;;;;4.72;3.00;;;;;;;36.31;19.10;101057.81;4960069;28;20043;-79
2021/08/12 14:18:08;;;;;;;3.88;3.10;;;;;;;35.74;19.02;101053.69;4962422;28;20105;-80